Time;durP1;ratioP1;P1;durP2;ratioP2;P2;SDS_P1;SDS_P2;PMS_P1;PMS_P2;Temp;Humidity;BMP_temperature;BMP_pressure;BME280_temperature;BME280_humidity;BME280_pressure;Samples;Min_cycle;Max_cycle;Signal;HPM_P1;HPM_P2
2021/11/04 00:00:36;;;;;;;29.77;17.85;;;;;;;3.52;100.00;100541.53;4972607;28;20095;-65
2021/11/04 00:03:01;;;;;;;30.55;18.63;;;;;;;3.51;100.00;100538.03;4974293;28;20031;-63
2021/11/04 00:05:27;;;;;;;27.73;17.67;;;;;;;3.51;100.00;100545.03;4974610;28;20031;-65
2021/11/04 00:07:56;;;;;;;31.35;19.13;;;;;;;3.48;100.00;100551.19;4972285;28;20058;-70
2021/11/04 00:10:22;;;;;;;28.65;17.70;;;;;;;3.47;100.00;100551.22;4973146;28;20023;-64
2021/11/04 00:12:48;;;;;;;23.13;14.82;;;;;;;3.41;100.00;100550.44;4974203;28;20031;-65
2021/11/04 00:15:14;;;;;;;28.00;17.02;;;;;;;3.35;100.00;100547.97;4974712;28;20027;-65
2021/11/04 00:17:40;;;;;;;27.77;16.95;;;;;;;3.31;100.00;100554.13;4972809;28;20026;-64
2021/11/04 00:20:08;;;;;;;25.00;15.75;;;;;;;3.28;100.00;100549.81;4973462;28;20031;-65
2021/11/04 00:22:35;;;;;;;25.13;15.57;;;;;;;3.26;100.00;100543.75;4973763;28;20027;-64
2021/11/04 00:25:00;;;;;;;29.35;16.45;;;;;;;3.23;100.00;100548.19;4974493;28;20096;-65
2021/11/04 00:27:25;;;;;;;25.08;16.08;;;;;;;3.22;100.00;100554.31;4972582;28;20474;-64
2021/11/04 00:29:51;;;;;;;25.10;16.42;;;;;;;3.19;100.00;100554.38;4974103;28;20030;-64
2021/11/04 00:32:16;;;;;;;25.67;15.90;;;;;;;3.16;100.00;100554.41;4962602;28;20463;-65
2021/11/04 00:34:41;;;;;;;26.98;15.95;;;;;;;3.10;100.00;100551.03;4954788;29;20046;-65
2021/11/04 00:37:07;;;;;;;24.95;15.30;;;;;;;3.06;100.00;100564.22;4954591;29;20031;-65
2021/11/04 00:39:32;;;;;;;25.05;16.23;;;;;;;2.99;100.00;100562.59;4955805;28;20093;-67
2021/11/04 00:41:58;;;;;;;28.65;15.95;;;;;;;2.98;100.00;100566.09;4955807;28;20039;-65
2021/11/04 00:44:23;;;;;;;23.38;15.13;;;;;;;2.99;100.00;100558.19;4954898;28;20361;-66
2021/11/04 00:46:48;;;;;;;24.00;15.20;;;;;;;2.93;100.00;100553.97;4955004;29;20491;-65
2021/11/04 00:49:14;;;;;;;23.38;15.30;;;;;;;2.91;100.00;100547.88;4963557;28;20110;-65
2021/11/04 00:51:39;;;;;;;24.38;15.77;;;;;;;2.87;100.00;100548.84;4974116;28;20081;-63
2021/11/04 00:54:05;;;;;;;24.10;15.45;;;;;;;2.81;100.00;100551.56;4972196;28;20473;-66
2021/11/04 00:56:30;;;;;;;21.95;15.10;;;;;;;2.81;100.00;100554.16;4973905;28;20031;-66
2021/11/04 00:58:55;;;;;;;21.80;14.95;;;;;;;2.77;100.00;100548.13;4972305;28;20042;-65
2021/11/04 01:01:22;;;;;;;19.90;13.90;;;;;;;2.75;100.00;100543.81;4954508;29;20102;-67
2021/11/04 01:03:49;;;;;;;23.63;13.45;;;;;;;2.71;100.00;100540.41;4955523;28;20439;-65
2021/11/04 01:06:15;;;;;;;18.52;13.15;;;;;;;2.67;100.00;100532.63;4937325;29;20541;-65
2021/11/04 01:08:41;;;;;;;19.27;13.43;;;;;;;2.66;100.00;100543.97;4954477;29;20030;-65
2021/11/04 01:11:07;;;;;;;21.10;13.52;;;;;;;2.64;100.00;100541.38;4955496;28;20031;-67
2021/11/04 01:13:32;;;;;;;21.13;12.88;;;;;;;2.61;100.00;100533.59;4955596;28;20027;-64
2021/11/04 01:15:58;;;;;;;17.65;12.43;;;;;;;2.59;100.00;100540.59;4954439;28;20510;-64
2021/11/04 01:18:23;;;;;;;20.38;13.50;;;;;;;2.55;100.00;100531.94;4955347;28;20472;-69
2021/11/04 01:20:48;;;;;;;18.02;12.55;;;;;;;2.53;100.00;100527.63;4954328;29;20353;-65
2021/11/04 01:23:14;;;;;;;18.10;12.82;;;;;;;2.50;100.00;100528.53;4954131;29;20024;-65
2021/11/04 01:25:39;;;;;;;18.27;13.13;;;;;;;2.47;100.00;100531.22;4955365;28;20028;-65
2021/11/04 01:28:08;;;;;;;25.70;12.38;;;;;;;2.45;100.00;100531.22;4954285;28;20023;-66
2021/11/04 01:30:38;;;;;;;20.63;12.80;;;;;;;2.40;100.00;100525.22;4972674;28;20034;-65
2021/11/04 01:33:04;;;;;;;16.27;11.77;;;;;;;2.37;100.00;100527.03;4961176;28;20028;-64
2021/11/04 01:35:33;;;;;;;16.13;12.55;;;;;;;2.36;100.00;100540.97;4954209;28;20030;-65
2021/11/04 01:37:59;;;;;;;18.27;12.98;;;;;;;2.33;100.00;100522.72;4954235;29;20015;-69
2021/11/04 01:40:25;;;;;;;16.70;12.77;;;;;;;2.29;100.00;100535.00;4955138;28;20090;-64
2021/11/04 01:42:50;;;;;;;15.88;12.38;;;;;;;2.27;100.00;100527.16;4956479;28;20031;-65
2021/11/04 01:45:16;;;;;;;16.05;11.98;;;;;;;2.25;100.00;100521.09;4958092;28;20511;-66
2021/11/04 01:47:45;;;;;;;17.10;12.40;;;;;;;2.21;100.00;100542.06;4958583;28;20122;-64
2021/11/04 01:50:13;;;;;;;16.50;12.02;;;;;;;2.18;100.00;100531.69;4958082;28;20074;-67
2021/11/04 01:52:38;;;;;;;14.85;11.32;;;;;;;2.15;100.00;100532.59;4957755;29;20053;-66
2021/11/04 01:55:04;;;;;;;15.95;12.23;;;;;;;2.12;100.00;100528.28;4957803;29;20387;-69
2021/11/04 01:57:29;;;;;;;18.58;12.77;;;;;;;2.11;100.00;100523.03;4958671;28;20059;-68
2021/11/04 01:59:54;;;;;;;19.17;13.98;;;;;;;2.12;100.00;100528.28;4957788;29;20045;-65
2021/11/04 02:02:22;;;;;;;17.58;12.45;;;;;;;2.13;100.00;100521.28;4958562;28;20640;-66
2021/11/04 02:04:57;;;;;;;15.75;11.98;;;;;;;2.11;100.00;100526.53;4957673;29;20047;-66
2021/11/04 02:07:42;;;;;;;22.30;13.00;;;;;;;2.14;100.00;100525.63;4958327;28;20471;-65
2021/11/04 02:10:11;;;;;;;19.00;12.20;;;;;;;2.17;100.00;100517.72;4958572;28;20117;-65
2021/11/04 02:12:37;;;;;;;19.85;13.02;;;;;;;2.19;100.00;100526.44;4957515;28;20106;-65
2021/11/04 02:15:03;;;;;;;20.63;12.45;;;;;;;2.20;100.00;100527.28;4957675;29;20471;-65
2021/11/04 02:17:31;;;;;;;19.13;12.52;;;;;;;2.19;100.00;100523.81;4958605;28;20054;-65
2021/11/04 02:19:59;;;;;;;17.17;11.65;;;;;;;2.16;100.00;100517.75;4958173;28;20035;-67
2021/11/04 02:22:35;;;;;;;17.00;11.65;;;;;;;2.14;100.00;100512.56;4957528;29;20027;-65
2021/11/04 02:25:19;;;;;;;16.10;12.05;;;;;;;2.14;100.00;100528.25;4957285;29;20031;-65
2021/11/04 02:28:08;;;;;;;14.45;10.98;;;;;;;2.13;100.00;100523.91;4957218;29;20023;-70
2021/11/04 02:30:34;;;;;;;16.33;10.90;;;;;;;2.11;100.00;100516.09;4967604;28;20034;-66
2021/11/04 02:33:00;;;;;;;13.82;10.75;;;;;;;2.10;100.00;100505.69;4976591;28;20023;-65
2021/11/04 02:35:26;;;;;;;14.68;11.27;;;;;;;2.08;100.00;100508.28;4976451;28;20035;-66
2021/11/04 02:37:53;;;;;;;18.65;11.75;;;;;;;2.08;100.00;100510.03;4976267;28;20030;-65
2021/11/04 02:40:22;;;;;;;16.42;11.82;;;;;;;2.09;100.00;100510.03;4972643;28;20029;-65
2021/11/04 02:42:48;;;;;;;16.95;11.90;;;;;;;2.08;100.00;100502.22;4976229;28;20027;-65
2021/11/04 02:45:13;;;;;;;16.73;11.55;;;;;;;2.07;100.00;100510.94;4976113;28;20448;-64
2021/11/04 02:47:40;;;;;;;19.35;12.23;;;;;;;2.07;100.00;100503.97;4976350;28;20031;-68
2021/11/04 02:50:08;;;;;;;16.58;12.00;;;;;;;2.06;100.00;100514.41;4974690;28;20121;-65
2021/11/04 02:52:35;;;;;;;18.20;11.88;;;;;;;2.05;100.00;100516.19;4966592;28;20043;-65
2021/11/04 02:55:03;;;;;;;16.85;12.55;;;;;;;2.05;100.00;100505.72;4955507;29;20062;-65
2021/11/04 02:57:29;;;;;;;17.50;12.48;;;;;;;2.06;100.00;100509.19;4956583;29;20054;-65
2021/11/04 02:59:54;;;;;;;16.85;11.77;;;;;;;2.05;100.00;100510.97;4957314;28;20472;-67
2021/11/04 03:02:20;;;;;;;22.13;12.95;;;;;;;2.06;100.00;100509.19;4966225;28;20047;-66
2021/11/04 03:04:45;;;;;;;21.50;12.57;;;;;;;2.02;100.00;100508.41;4974811;28;20101;-66
2021/11/04 03:07:12;;;;;;;20.17;12.02;;;;;;;2.01;100.00;100503.19;4975140;28;20031;-65
2021/11/04 03:09:37;;;;;;;19.20;12.90;;;;;;;2.00;100.00;100510.16;4975474;28;20434;-65
2021/11/04 03:12:03;;;;;;;22.23;13.13;;;;;;;1.96;100.00;100519.78;4972253;28;20062;-64
2021/11/04 03:14:28;;;;;;;16.80;11.40;;;;;;;1.94;100.00;100523.31;4975551;28;20035;-65
2021/11/04 03:16:55;;;;;;;17.65;12.32;;;;;;;1.91;100.00;100523.38;4975562;28;20027;-66
2021/11/04 03:19:22;;;;;;;19.02;13.43;;;;;;;1.96;100.00;100534.59;4975564;28;20464;-64
2021/11/04 03:21:50;;;;;;;16.55;12.05;;;;;;;1.96;100.00;100540.69;4974086;28;20035;-65
2021/11/04 03:24:18;;;;;;;19.70;12.73;;;;;;;1.99;100.00;100531.09;4973909;28;20046;-65
2021/11/04 03:26:45;;;;;;;19.45;12.90;;;;;;;2.03;100.00;100541.44;4975155;28;20476;-65
2021/11/04 03:29:11;;;;;;;21.00;13.55;;;;;;;2.03;100.00;100540.59;4975478;28;20129;-68
2021/11/04 03:31:38;;;;;;;20.15;13.95;;;;;;;1.99;100.00;100542.38;4975489;28;20026;-65
2021/11/04 03:34:05;;;;;;;20.77;12.85;;;;;;;1.98;100.00;100542.41;4972080;28;20027;-68
2021/11/04 03:36:34;;;;;;;21.15;14.05;;;;;;;2.00;100.00;100540.66;4975029;28;20475;-66
2021/11/04 03:39:00;;;;;;;17.20;11.68;;;;;;;2.02;100.00;100531.91;4975159;28;20061;-67
2021/11/04 03:41:25;;;;;;;22.92;13.45;;;;;;;2.04;100.00;100532.72;4974941;28;20065;-65
2021/11/04 03:43:51;;;;;;;20.38;13.13;;;;;;;2.06;100.00;100536.19;4971599;28;20110;-66
2021/11/04 03:46:17;;;;;;;19.35;12.45;;;;;;;2.11;100.00;100541.34;4975177;28;20038;-66
2021/11/04 03:48:44;;;;;;;20.20;12.82;;;;;;;2.12;100.00;100538.72;4974956;28;20023;-64
2021/11/04 03:51:11;;;;;;;21.30;13.73;;;;;;;2.19;100.00;100546.47;4975012;28;20031;-64
2021/11/04 03:53:39;;;;;;;17.45;12.00;;;;;;;2.25;100.00;100554.19;4973083;28;20023;-65
2021/11/04 03:56:05;;;;;;;21.83;13.82;;;;;;;2.34;100.00;100555.81;4973162;28;20034;-63
2021/11/04 03:58:33;;;;;;;20.98;13.75;;;;;;;2.42;100.00;100552.19;4974696;28;20486;-66
2021/11/04 04:00:59;;;;;;;23.05;14.50;;;;;;;2.52;100.00;100559.88;4974690;28;20039;-67
2021/11/04 04:03:24;;;;;;;20.20;12.50;;;;;;;2.61;100.00;100557.13;4975023;28;20033;-64
2021/11/04 04:06:00;;;;;;;22.15;13.95;;;;;;;2.67;100.00;100561.38;4972138;28;20066;-65
2021/11/04 04:08:25;;;;;;;22.60;14.13;;;;;;;2.73;100.00;100553.44;4974846;28;20030;-69
2021/11/04 04:10:50;;;;;;;18.02;13.15;;;;;;;2.76;100.00;100554.25;4974623;28;20034;-66
2021/11/04 04:13:16;;;;;;;18.25;12.73;;;;;;;2.75;100.00;100551.66;4974215;28;20450;-68
2021/11/04 04:15:41;;;;;;;16.77;11.95;;;;;;;2.75;100.00;100554.25;4972347;28;20046;-65
2021/11/04 04:18:06;;;;;;;16.58;11.38;;;;;;;2.71;100.00;100555.22;4973972;28;20441;-64
2021/11/04 04:20:32;;;;;;;16.58;11.75;;;;;;;2.70;100.00;100558.72;4974330;28;20419;-68
2021/11/04 04:22:57;;;;;;;18.23;12.63;;;;;;;2.65;100.00;100556.19;4974416;28;20058;-65
2021/11/04 04:25:23;;;;;;;17.10;11.63;;;;;;;2.64;100.00;100557.06;4971454;28;20062;-67
2021/11/04 04:27:48;;;;;;;19.25;12.80;;;;;;;2.61;100.00;100557.13;4939061;29;20484;-66
2021/11/04 04:30:14;;;;;;;17.48;11.68;;;;;;;2.55;100.00;100558.09;4956140;28;20118;-66
2021/11/04 04:32:39;;;;;;;19.10;12.18;;;;;;;2.52;100.00;100555.53;4954966;28;20471;-67
2021/11/04 04:35:04;;;;;;;18.70;12.68;;;;;;;2.48;100.00;100551.22;4954963;29;20059;-64
2021/11/04 04:37:30;;;;;;;17.10;12.02;;;;;;;2.47;100.00;100562.59;4955870;28;20395;-65
2021/11/04 04:39:55;;;;;;;18.00;12.07;;;;;;;2.45;100.00;100562.59;4954990;29;20031;-65
2021/11/04 04:42:20;;;;;;;17.10;11.52;;;;;;;2.44;100.00;100565.22;4955786;28;20506;-65
2021/11/04 04:44:46;;;;;;;17.25;11.98;;;;;;;2.49;100.00;100562.56;4954623;29;20467;-66
2021/11/04 04:47:11;;;;;;;17.23;12.05;;;;;;;2.56;100.00;100559.81;4955898;28;20546;-69
2021/11/04 04:49:36;;;;;;;18.13;12.18;;;;;;;2.68;100.00;100563.13;4954951;29;20646;-66
2021/11/04 04:52:02;;;;;;;20.08;13.32;;;;;;;2.80;100.00;100560.31;4955976;28;20034;-65
2021/11/04 04:54:27;;;;;;;25.33;13.55;;;;;;;2.94;100.00;100567.88;4954648;29;20050;-65
2021/11/04 04:56:53;;;;;;;19.42;12.50;;;;;;;3.06;100.00;100572.91;4954621;29;20027;-67
2021/11/04 04:59:18;;;;;;;20.92;12.93;;;;;;;3.16;100.00;100572.72;4955520;28;20031;-65
2021/11/04 05:01:44;;;;;;;20.60;12.43;;;;;;;3.24;100.00;100574.31;4954213;29;20047;-66
2021/11/04 05:04:09;;;;;;;19.20;12.48;;;;;;;3.33;100.00;100564.59;4955850;28;20067;-69
2021/11/04 05:06:34;;;;;;;20.13;12.10;;;;;;;3.42;100.00;100572.25;4954635;29;20066;-66
2021/11/04 05:09:00;;;;;;;18.95;12.95;;;;;;;3.48;100.00;100571.25;4955798;28;20490;-67
2021/11/04 05:11:26;;;;;;;19.77;11.48;;;;;;;3.46;100.00;100571.28;4954720;29;20031;-66
2021/11/04 05:13:51;;;;;;;19.88;12.05;;;;;;;3.46;100.00;100579.16;4955293;28;20038;-66
2021/11/04 05:16:16;;;;;;;17.83;11.75;;;;;;;3.52;100.00;100572.94;4954138;28;20028;-65
2021/11/04 05:18:42;;;;;;;22.02;12.27;;;;;;;3.55;100.00;100581.56;4959498;28;20427;-69
2021/11/04 05:21:07;;;;;;;21.70;12.48;;;;;;;3.62;100.00;100587.56;4959235;28;20062;-65
2021/11/04 05:23:32;;;;;;;21.92;12.05;;;;;;;3.70;100.00;100575.16;4959260;28;20059;-65
2021/11/04 05:25:58;;;;;;;19.45;12.52;;;;;;;3.79;100.00;100575.91;4958252;29;20023;-70
2021/11/04 05:28:23;;;;;;;21.98;12.15;;;;;;;3.85;100.00;100575.72;4957970;29;20476;-65
2021/11/04 05:30:48;;;;;;;18.73;11.45;;;;;;;3.96;100.00;100572.91;4959160;28;20102;-71
2021/11/04 05:33:14;;;;;;;21.25;12.18;;;;;;;4.00;100.00;100609.47;4957879;28;20085;-70
2021/11/04 05:35:39;;;;;;;15.23;8.95;;;;;;;4.22;100.00;100604.63;4959118;28;20034;-66
2021/11/04 05:38:04;;;;;;;16.02;8.77;;;;;;;4.53;100.00;100616.19;4958100;29;20155;-71
2021/11/04 05:40:30;;;;;;;13.85;7.95;;;;;;;4.69;100.00;100609.69;4959016;28;20079;-71
2021/11/04 05:42:55;;;;;;;16.77;7.40;;;;;;;4.80;100.00;100609.41;4957925;29;20023;-68
2021/11/04 05:45:20;;;;;;;12.52;6.60;;;;;;;4.92;100.00;100616.09;4958806;28;20027;-66
2021/11/04 05:47:46;;;;;;;13.65;6.57;;;;;;;4.98;100.00;100613.34;4959052;28;20114;-72
2021/11/04 05:50:12;;;;;;;15.68;6.30;;;;;;;5.01;100.00;100615.91;4958038;29;20412;-70
2021/11/04 05:52:37;;;;;;;11.30;6.10;;;;;;;5.06;100.00;100611.41;4959054;28;20035;-65
2021/11/04 05:55:04;;;;;;;10.02;5.55;;;;;;;5.08;100.00;100598.22;4957605;29;20038;-70
2021/11/04 05:57:29;;;;;;;13.98;6.32;;;;;;;5.13;100.00;100608.59;4958530;28;20039;-66
2021/11/04 05:59:55;;;;;;;10.15;5.63;;;;;;;5.14;100.00;100602.44;4957522;29;20483;-66
2021/11/04 06:02:21;;;;;;;14.60;6.10;;;;;;;5.05;100.00;100593.91;4958567;28;20083;-72
2021/11/04 06:04:46;;;;;;;9.82;5.60;;;;;;;5.04;100.00;100599.22;4957391;29;20058;-67
2021/11/04 06:07:13;;;;;;;14.98;6.70;;;;;;;4.98;100.00;100597.59;4958350;28;20070;-70
2021/11/04 06:09:40;;;;;;;11.50;5.30;;;;;;;4.92;100.00;100600.38;4957337;29;20391;-71
2021/11/04 06:12:06;;;;;;;10.32;5.88;;;;;;;4.90;100.00;100610.91;4941064;28;20055;-72
2021/11/04 06:14:31;;;;;;;10.38;5.75;;;;;;;4.89;100.00;100601.31;4961984;28;20073;-72
2021/11/04 06:16:56;;;;;;;9.90;5.80;;;;;;;4.93;100.00;100602.94;4976012;28;20090;-68
2021/11/04 06:19:22;;;;;;;9.30;5.18;;;;;;;4.93;100.00;100600.31;4975363;28;20042;-66
2021/11/04 06:21:48;;;;;;;8.00;5.30;;;;;;;4.87;100.00;100591.75;4970825;28;20545;-66
2021/11/04 06:24:13;;;;;;;9.68;5.30;;;;;;;4.83;100.00;100585.72;4967756;28;20035;-66
2021/11/04 06:26:38;;;;;;;10.82;5.25;;;;;;;4.81;100.00;100591.91;4968634;28;20031;-65
2021/11/04 06:29:04;;;;;;;8.52;5.35;;;;;;;4.79;100.00;100594.56;4971781;28;20057;-66
2021/11/04 06:31:30;;;;;;;9.10;5.25;;;;;;;4.78;100.00;100594.59;4971308;28;20471;-64
2021/11/04 06:33:55;;;;;;;9.85;5.15;;;;;;;4.75;100.00;100606.88;4973943;28;20034;-65
2021/11/04 06:36:21;;;;;;;9.60;5.50;;;;;;;4.80;100.00;100609.41;4970174;28;20043;-66
2021/11/04 06:38:46;;;;;;;9.85;5.43;;;;;;;4.85;100.00;100617.19;4958982;28;20498;-74
2021/11/04 06:41:11;;;;;;;8.50;6.03;;;;;;;4.92;100.00;100624.84;4973433;28;20023;-70
2021/11/04 06:43:37;;;;;;;13.15;6.80;;;;;;;4.99;100.00;100622.94;4973687;28;20058;-66
2021/11/04 06:46:02;;;;;;;12.70;6.78;;;;;;;5.08;100.00;100627.09;4970645;28;20027;-63
2021/11/04 06:48:36;;;;;;;12.38;6.85;;;;;;;5.12;100.00;100622.63;4973087;28;20034;-65
2021/11/04 06:51:02;;;;;;;11.60;6.50;;;;;;;5.14;100.00;100628.69;4970058;28;20042;-63
2021/11/04 06:53:28;;;;;;;15.90;8.43;;;;;;;5.22;100.00;100635.47;4973825;28;20035;-64
2021/11/04 06:55:55;;;;;;;12.52;8.38;;;;;;;5.31;100.00;100638.78;4964534;28;20054;-64
2021/11/04 06:58:28;;;;;;;14.05;8.50;;;;;;;5.40;100.00;100644.63;4976071;28;20076;-66
2021/11/04 07:00:55;;;;;;;13.20;7.80;;;;;;;5.50;100.00;100652.25;4974745;28;20497;-64
2021/11/04 07:03:24;;;;;;;11.98;6.45;;;;;;;5.57;100.00;100652.03;4976227;28;20103;-64
2021/11/04 07:06:07;;;;;;;12.32;6.18;;;;;;;5.65;100.00;100646.59;4974600;28;20116;-69
2021/11/04 07:08:40;;;;;;;10.23;6.22;;;;;;;5.78;100.00;100651.50;4965606;28;20073;-64
2021/11/04 07:11:05;;;;;;;10.52;5.25;;;;;;;5.87;100.00;100654.75;4975545;28;20490;-71
2021/11/04 07:13:31;;;;;;;9.27;4.90;;;;;;;5.93;100.00;100645.81;4975439;28;20138;-63
2021/11/04 07:16:00;;;;;;;8.60;4.05;;;;;;;6.06;100.00;100648.97;4971822;28;20057;-64
2021/11/04 07:18:26;;;;;;;10.25;5.20;;;;;;;6.07;100.00;100650.69;4972110;28;20410;-63
2021/11/04 07:21:13;;;;;;;6.93;3.75;;;;;;;6.13;100.00;100652.31;4973435;28;20041;-65
2021/11/04 07:23:44;;;;;;;9.13;3.17;;;;;;;6.21;100.00;100656.44;4961610;28;20591;-73
2021/11/04 07:26:09;;;;;;;7.80;3.10;;;;;;;6.30;100.00;100667.56;4965956;28;20031;-65
2021/11/04 07:28:40;;;;;;;9.32;3.40;;;;;;;6.42;100.00;100664.59;4967537;28;20532;-62
2021/11/04 07:31:10;;;;;;;45.38;9.77;;;;;;;6.49;100.00;100658.22;4974028;28;20549;-71
2021/11/04 07:33:40;;;;;;;10.45;4.60;;;;;;;6.48;100.00;100661.75;4964192;28;20038;-63
2021/11/04 07:36:05;;;;;;;9.23;4.60;;;;;;;6.46;100.00;100660.06;4961160;28;20036;-63
2021/11/04 07:38:33;;;;;;;10.20;5.07;;;;;;;6.52;100.00;100659.88;4956528;28;20019;-69
2021/11/04 07:40:58;;;;;;;11.27;4.88;;;;;;;6.54;100.00;100660.72;4955130;28;20023;-64
2021/11/04 07:43:24;;;;;;;8.48;4.93;;;;;;;6.55;100.00;100663.28;4963730;28;20037;-68
2021/11/04 07:45:50;;;;;;;12.07;5.47;;;;;;;6.63;100.00;100670.94;4974277;28;20030;-65
2021/11/04 07:48:15;;;;;;;11.32;5.45;;;;;;;6.72;100.00;100665.38;4961858;28;20032;-65
2021/11/04 07:50:40;;;;;;;10.48;4.85;;;;;;;6.82;100.00;100671.22;4969138;28;20485;-63
2021/11/04 07:53:05;;;;;;;8.30;4.80;;;;;;;6.96;100.00;100668.16;4971832;28;20039;-64
2021/11/04 07:55:31;;;;;;;8.68;4.45;;;;;;;7.05;100.00;100677.53;4971547;28;20050;-64
2021/11/04 07:57:56;;;;;;;19.10;6.20;;;;;;;7.12;100.00;100668.50;4974487;28;20105;-64
2021/11/04 08:00:24;;;;;;;13.25;5.10;;;;;;;7.21;100.00;100668.22;4973322;28;20449;-66
2021/11/04 08:02:49;;;;;;;11.70;5.70;;;;;;;7.20;100.00;100663.84;4973476;28;20399;-65
2021/11/04 08:05:17;;;;;;;9.73;4.78;;;;;;;7.21;100.00;100672.59;4973005;28;20027;-64
2021/11/04 08:07:42;;;;;;;11.88;4.60;;;;;;;7.28;100.00;100675.91;4971734;28;20031;-64
2021/11/04 08:10:14;;;;;;;11.45;5.05;;;;;;;7.40;100.00;100670.19;4974002;28;20037;-64
2021/11/04 08:12:40;;;;;;;9.18;4.68;;;;;;;7.54;100.00;100661.81;4968968;28;20805;-65
2021/11/04 08:15:07;;;;;;;17.52;6.22;;;;;;;7.69;100.00;100663.91;4974575;28;20100;-65
2021/11/04 08:17:33;;;;;;;14.77;5.78;;;;;;;7.78;100.00;100657.44;4974219;28;20026;-64
2021/11/04 08:19:59;;;;;;;10.32;5.00;;;;;;;7.92;100.00;100664.00;4974519;28;20126;-64
2021/11/04 08:22:24;;;;;;;23.83;7.95;;;;;;;8.10;100.00;100660.69;4973287;28;20050;-65
2021/11/04 08:24:50;;;;;;;12.55;5.40;;;;;;;8.30;100.00;100666.97;4973639;28;20030;-64
2021/11/04 08:27:17;;;;;;;9.50;4.57;;;;;;;8.48;100.00;100660.19;4973937;28;20018;-65
2021/11/04 08:29:43;;;;;;;11.10;4.10;;;;;;;8.76;100.00;100664.34;4974030;28;20041;-63
2021/11/04 08:32:10;;;;;;;14.00;4.10;;;;;;;8.97;100.00;100663.47;4972569;28;20027;-67
2021/11/04 08:34:36;;;;;;;6.57;3.58;;;;;;;9.26;100.00;100665.81;4969792;28;20117;-65
2021/11/04 08:37:03;;;;;;;6.72;3.47;;;;;;;9.82;100.00;100672.22;4973679;28;20053;-63
2021/11/04 08:39:28;;;;;;;11.02;3.63;;;;;;;10.18;100.00;100663.59;4972418;28;20030;-66
2021/11/04 08:41:53;;;;;;;9.48;3.17;;;;;;;10.46;98.52;100662.31;4972037;28;20033;-65
2021/11/04 08:44:20;;;;;;;9.82;2.72;;;;;;;10.40;93.93;100662.63;4973719;28;20498;-64
2021/11/04 08:46:47;;;;;;;7.80;2.70;;;;;;;10.29;93.66;100674.53;4972101;28;20046;-64
2021/11/04 08:49:12;;;;;;;7.05;1.92;;;;;;;10.25;93.52;100682.69;4972729;28;20030;-62
2021/11/04 08:51:38;;;;;;;5.82;2.30;;;;;;;10.18;93.14;100676.81;4971619;28;20030;-65
2021/11/04 08:54:04;;;;;;;6.47;2.35;;;;;;;9.89;93.54;100688.72;4971864;28;20035;-64
2021/11/04 08:56:29;;;;;;;7.78;2.70;;;;;;;9.70;94.22;100688.66;4974072;28;20039;-65
2021/11/04 08:58:54;;;;;;;10.57;2.83;;;;;;;9.57;95.13;100688.34;4969816;28;20023;-65
2021/11/04 09:01:20;;;;;;;8.50;2.75;;;;;;;9.41;95.86;100694.28;4973244;28;20434;-66
2021/11/04 09:03:45;;;;;;;10.75;2.50;;;;;;;9.33;96.47;100699.88;4973658;28;20478;-66
2021/11/04 09:06:11;;;;;;;8.65;2.92;;;;;;;9.22;98.03;100709.16;4960067;28;20027;-64
2021/11/04 09:08:36;;;;;;;13.73;3.65;;;;;;;9.15;97.80;100706.78;4973761;28;20301;-64
2021/11/04 09:11:01;;;;;;;8.10;2.85;;;;;;;9.08;97.93;100701.78;4973881;28;20467;-66
2021/11/04 09:13:27;;;;;;;8.77;4.40;;;;;;;8.89;98.66;100701.69;4972210;28;20113;-66
2021/11/04 09:15:52;;;;;;;8.10;4.30;;;;;;;8.76;98.50;100694.28;4971675;28;20117;-66
2021/11/04 09:18:19;;;;;;;1.70;1.00;;;;;;;8.59;98.85;100692.28;4972453;28;20102;-66
2021/11/04 09:20:45;;;;;;;3.97;1.17;;;;;;;8.47;98.97;100687.50;4969891;28;20023;-65
2021/11/04 09:23:10;;;;;;;4.47;2.67;;;;;;;8.40;98.95;100689.47;4972122;28;20041;-62
2021/11/04 09:25:36;;;;;;;2.33;1.50;;;;;;;8.39;99.64;100693.03;4973021;28;20026;-66
2021/11/04 09:28:03;;;;;;;4.57;1.88;;;;;;;8.37;99.97;100685.16;4972899;28;20030;-66
2021/11/04 09:30:29;;;;;;;5.85;1.27;;;;;;;8.37;100.00;100679.88;4973124;28;20023;-66
2021/11/04 09:32:55;;;;;;;4.10;1.10;;;;;;;8.44;100.00;100675.25;4973291;28;20534;-65
2021/11/04 09:35:21;;;;;;;6.15;1.35;;;;;;;8.53;100.00;100682.81;4973555;28;20034;-65
2021/11/04 09:37:46;;;;;;;3.22;1.40;;;;;;;8.60;100.00;100679.94;4973642;28;20130;-65
2021/11/04 09:40:13;;;;;;;3.50;1.58;;;;;;;8.65;100.00;100685.91;4973330;28;20041;-65
2021/11/04 09:42:39;;;;;;;3.45;1.33;;;;;;;8.68;100.00;100683.13;4973535;28;20034;-68
2021/11/04 09:45:05;;;;;;;5.78;1.25;;;;;;;8.74;100.00;100682.91;4973427;28;20028;-66
2021/11/04 09:47:32;;;;;;;5.38;2.55;;;;;;;8.74;99.37;100684.69;4972936;28;20470;-66
2021/11/04 09:50:05;;;;;;;4.63;1.30;;;;;;;8.73;98.22;100682.97;4973450;28;20056;-65
2021/11/04 09:52:33;;;;;;;2.60;1.10;;;;;;;8.70;98.24;100683.94;4973142;28;20035;-65
2021/11/04 09:54:59;;;;;;;5.35;1.23;;;;;;;8.69;98.42;100688.34;4973002;28;20037;-66
2021/11/04 09:57:26;;;;;;;3.63;1.20;;;;;;;8.66;97.49;100700.84;4973247;28;20035;-66
2021/11/04 09:59:53;;;;;;;6.85;1.30;;;;;;;8.69;97.27;100687.50;4973125;28;20054;-65
2021/11/04 10:02:21;;;;;;;7.90;1.45;;;;;;;8.74;97.47;100688.19;4973119;28;20047;-65
2021/11/04 10:04:47;;;;;;;4.95;1.25;;;;;;;8.79;97.84;100694.13;4959241;28;20051;-65
2021/11/04 10:07:14;;;;;;;10.55;1.90;;;;;;;8.87;97.55;100696.47;4977052;28;20022;-65
2021/11/04 10:09:41;;;;;;;5.20;1.38;;;;;;;9.02;97.38;100703.78;4976570;28;20066;-65
2021/11/04 10:12:13;;;;;;;4.72;1.60;;;;;;;9.32;97.03;100703.44;4976694;28;20023;-66
2021/11/04 10:14:39;;;;;;;;;;;;;;;9.55;96.10;100698.09;4976904;28;20059;-66
2021/11/04 10:17:05;;;;;;;3.20;1.55;;;;;;;9.80;95.24;100704.03;4976835;28;19914;-65
2021/11/04 10:19:41;;;;;;;4.10;1.42;;;;;;;9.97;93.61;100705.09;4976531;28;20026;-65
2021/11/04 10:22:06;;;;;;;5.32;1.60;;;;;;;9.85;92.79;100693.28;4976755;28;20030;-65
2021/11/04 10:24:32;;;;;;;4.95;1.90;;;;;;;9.83;92.84;100705.69;4976450;28;20097;-66
2021/11/04 10:26:57;;;;;;;6.05;1.80;;;;;;;10.00;93.25;100705.81;4976492;28;20031;-65
2021/11/04 10:29:34;;;;;;;8.55;1.70;;;;;;;10.27;92.80;100707.28;4976303;28;20042;-66
2021/11/04 10:32:00;;;;;;;7.93;1.65;;;;;;;10.34;90.17;100719.31;4976337;28;20106;-67
2021/11/04 10:34:36;;;;;;;3.97;1.60;;;;;;;10.28;90.22;100712.50;4976210;28;20113;-66
2021/11/04 10:37:09;;;;;;;9.35;1.90;;;;;;;10.25;90.89;100717.94;4976358;28;20019;-65
2021/11/04 10:39:40;;;;;;;5.97;1.88;;;;;;;11.02;90.51;100708.19;4976076;28;20031;-64
2021/11/04 10:42:06;;;;;;;5.82;1.92;;;;;;;11.92;85.09;100716.97;4976307;28;20019;-66
2021/11/04 10:44:32;;;;;;;7.28;2.00;;;;;;;13.14;79.86;100709.47;4976206;28;20034;-65
2021/11/04 10:46:58;;;;;;;6.38;2.28;;;;;;;14.49;75.48;100710.25;4976124;28;20030;-65
2021/11/04 10:49:39;;;;;;;6.40;1.60;;;;;;;14.95;71.10;100714.47;4975947;28;20074;-63
2021/11/04 10:52:07;;;;;;;4.33;1.27;;;;;;;15.91;66.03;100708.09;4975882;28;20046;-65
2021/11/04 10:54:48;;;;;;;6.07;1.42;;;;;;;16.11;63.71;100710.22;4975841;28;20027;-65
2021/11/04 10:57:32;;;;;;;3.97;1.17;;;;;;;16.27;63.29;100704.66;4975995;28;20475;-66
2021/11/04 11:00:13;;;;;;;4.75;1.25;;;;;;;16.78;62.22;100695.66;4975980;28;20038;-66
2021/11/04 11:02:38;;;;;;;8.05;1.67;;;;;;;17.25;60.29;100708.31;4975676;28;20097;-65
2021/11/04 11:05:27;;;;;;;5.32;1.30;;;;;;;17.14;60.17;100701.94;4975524;28;20074;-62
2021/11/04 11:07:54;;;;;;;4.05;1.15;;;;;;;17.08;59.98;100707.75;4975508;28;20039;-65
2021/11/04 11:10:19;;;;;;;3.70;0.98;;;;;;;17.25;58.73;100717.22;4975594;28;20078;-66
2021/11/04 11:12:45;;;;;;;2.35;0.85;;;;;;;17.40;57.20;100714.34;4975588;28;20031;-66
2021/11/04 11:15:10;;;;;;;4.20;1.10;;;;;;;17.40;52.90;100722.38;4974306;28;20386;-66